Saint Helens, OR (97051)

10:15 AM PDT on August 29, 2014 (GMT -0700)
Arbor Hill, Sykes Rd. | Change Station
CLOSE
Current Station
Personal Weather Station
Location: St. Helens, OR
Elevation: 200 ft
Nearby Weather Stations

Elev 200 ft 45.85 °N, 122.85 °W | Updated 5 seconds ago

Overcast
Overcast
67.3 °F
Feels Like 67.3 °F
N
1.0
Wind Variable Wind from NNW
Gusts 2.0 mph

Today
High -- | Low -- °F
--% Chance of Precip.
Yesterday
High -- | Low -- °F
Precip. -- in
6:28 AM 7:55 PM
Waxing Crescent, 15% visible
Pressure 30.01 in
Visibility 10.0 miles
Clouds Overcast 2000 ft
Dew Point 58 °F
Humidity 73%
Rainfall 0.00 in
Snow Depth Not available.
UV 1 out of 12
Pollen 3.60 out of 12
Air Quality Not available.
Flu Activity Not available.
METAR KSPB 291653Z AUTO VRB03KT 10SM OVC020 19/13 A3001 RMK AO2 SLP160 T01940133

More Conditions Fewer Conditions

Pressure 30.01 in
Visibility 10.0 miles
Clouds Overcast 2000 ft
Dew Point 58 °F
Humidity 73%
Rainfall 0.00 in
Snow Depth Not available.
UV 1 out of 12
Pollen 3.60 out of 12
Air Quality Not available.
Flu Activity Not available.
METAR KSPB 291653Z AUTO VRB03KT 10SM OVC020 19/13 A3001 RMK AO2 SLP160 T01940133

More Conditions Fewer Conditions

10-Day Weather Forecast

Almanac

Astronomy

Aug. 29, 2014 Rise Set
Actual Time 6:28 AM PDT 7:55 PM PDT
Civil Twilight 5:57 AM PDT 8:25 PM PDT
Nautical Twilight 5:20 AM PDT 9:03 PM PDT
Astronomical Twilight 4:39 AM PDT 9:43 PM PDT
Moon 10:38 AM PDT 9:40 PM PDT
Length of Visible Light 14h 28m
Length of Day
13h 26m
Tomorrow will be 3m 6s shorter.
Waxing Crescent, 15% of the Moon is Illuminated
Today
Waxing Crescent
Sep 2
First Quarter
Sep 8
Full
Sep 15
Last Quarter
Sep 24
New

Today's Extremes

State Highs State Lows

Community

WunderPhotos

Upload Photos

1,748,298 photos uploaded!

Nearby

Snow Depth

Station Depth Elevation
Seine Creek 0 in 2000 ft
Saddle Mountain 5 in 3250 ft
North Fork 1 in 3120 ft
Blazed Alder 0 in 3650 ft
Greenpoint 1 in 3200 ft

Earthquake Activity

City Distance Mag. Time & Date
No recent earthquake activity has been reported nearby.
Minimum magnitude displayed is 2.5.

Coastal Water Temperatures

Place Temperature
Astoria, OR 69.1 °F
Westport, WA 57.9 °F

Nearby Weather Stations